createdAt,value
2023-03-17T00:01:14.194Z,87.13
2023-03-17T00:03:43.201Z,87.68
2023-03-17T00:06:16.953Z,88.30
2023-03-17T00:08:45.976Z,88.02
2023-03-17T00:11:14.966Z,87.98
2023-03-17T00:13:42.814Z,88.49
2023-03-17T00:16:22.410Z,89.04
2023-03-17T00:18:50.760Z,89.51
2023-03-17T00:21:27.272Z,90.12
2023-03-17T00:23:55.603Z,90.44
2023-03-17T00:26:22.689Z,91.17
2023-03-17T00:28:51.205Z,90.89
2023-03-17T00:31:24.582Z,91.47
2023-03-17T00:33:54.205Z,91.63
2023-03-17T00:36:32.687Z,91.82
2023-03-17T00:39:00.045Z,92.36
2023-03-17T00:41:27.441Z,93.46
2023-03-17T00:43:54.383Z,93.25
2023-03-17T00:46:27.769Z,93.25
2023-03-17T00:48:55.356Z,92.79
2023-03-17T00:51:23.555Z,91.74
2023-03-17T00:53:50.686Z,92.20
2023-03-17T00:56:19.996Z,92.85
2023-03-17T00:58:47.941Z,91.91
2023-03-17T01:01:15.114Z,91.15
2023-03-17T01:03:41.976Z,90.49
2023-03-17T01:06:12.337Z,89.92
2023-03-17T01:09:09.635Z,90.97
2023-03-17T01:11:52.325Z,91.53
2023-03-17T01:14:50.839Z,92.23
2023-03-17T01:17:32.361Z,93.03
2023-03-17T01:20:30.733Z,93.37
2023-03-17T01:23:16.832Z,94.62
2023-03-17T01:25:45.059Z,95.81
2023-03-17T01:28:17.021Z,95.14
2023-03-17T01:30:43.914Z,94.81
2023-03-17T01:33:13.216Z,93.67
2023-03-17T01:35:41.597Z,93.42
2023-03-17T01:38:08.818Z,91.97
2023-03-17T01:40:39.322Z,92.22
2023-03-17T01:43:09.079Z,92.24
2023-03-17T01:46:13.413Z,92.53
2023-03-17T01:48:47.290Z,92.60
2023-03-17T01:51:19.348Z,92.08
2023-03-17T01:53:50.062Z,92.72
2023-03-17T01:56:18.276Z,92.58
2023-03-17T01:58:49.592Z,91.86
2023-03-17T02:01:16.710Z,90.64
2023-03-17T02:03:45.767Z,90.59
2023-03-17T02:06:13.249Z,89.77
2023-03-17T02:08:40.436Z,89.65
2023-03-17T02:11:14.320Z,88.96
2023-03-17T02:16:54.406Z,89.25
2023-03-17T02:19:38.577Z,90.21
2023-03-17T02:22:25.958Z,91.61
2023-03-17T02:25:14.014Z,91.61
2023-03-17T02:28:08.723Z,91.89
2023-03-17T02:30:36.640Z,92.96
2023-03-17T02:33:03.766Z,92.97
2023-03-17T02:35:31.653Z,92.33
2023-03-17T02:37:58.631Z,91.97
2023-03-17T02:40:25.455Z,92.92
2023-03-17T02:42:52.317Z,93.67
2023-03-17T02:45:19.153Z,94.70
2023-03-17T02:47:47.271Z,94.24
2023-03-17T02:50:23.754Z,93.63
2023-03-17T02:52:51.496Z,93.02
2023-03-17T02:55:18.427Z,93.99
2023-03-17T02:57:45.212Z,93.88
2023-03-17T03:00:13.599Z,93.75
2023-03-17T03:02:41.651Z,94.23
2023-03-17T03:05:09.795Z,93.54
2023-03-17T03:07:36.819Z,93.53
2023-03-17T03:10:04.340Z,93.53
2023-03-17T03:12:31.223Z,93.50
2023-03-17T03:14:58.999Z,92.73
2023-03-17T03:17:25.789Z,93.56
2023-03-17T03:19:52.737Z,93.77
2023-03-17T03:22:19.565Z,94.21
2023-03-17T03:24:46.413Z,93.85
2023-03-17T03:27:13.196Z,94.20
2023-03-17T03:29:40.037Z,95.72
2023-03-17T03:32:07.513Z,95.45
2023-03-17T03:34:34.397Z,94.79
2023-03-17T03:37:01.350Z,95.66
2023-03-17T03:39:28.201Z,95.25
2023-03-17T03:41:58.615Z,96.08
2023-03-17T03:44:25.897Z,95.64
2023-03-17T03:46:53.056Z,95.49
2023-03-17T03:49:19.989Z,94.17
2023-03-17T03:51:46.858Z,92.83
2023-03-17T03:54:13.992Z,92.57
2023-03-17T03:56:40.806Z,92.53
2023-03-17T03:59:07.792Z,93.85
2023-03-17T04:01:34.566Z,93.99
2023-03-17T04:04:02.007Z,94.32
2023-03-17T04:06:28.891Z,94.59
2023-03-17T04:08:57.866Z,93.94
2023-03-17T04:11:25.237Z,92.06
2023-03-17T04:13:52.220Z,90.60
2023-03-17T04:16:19.124Z,89.82
2023-03-17T04:18:46.178Z,89.63
2023-03-17T04:21:13.919Z,88.79
2023-03-17T04:23:40.857Z,88.88
2023-03-17T04:26:07.802Z,90.75
2023-03-17T04:28:34.921Z,92.44
2023-03-17T04:31:02.091Z,92.64
2023-03-17T04:33:29.285Z,92.75
2023-03-17T04:35:56.994Z,92.85
2023-03-17T04:38:23.949Z,92.59
2023-03-17T04:40:52.051Z,92.88
2023-03-17T04:43:19.035Z,92.11
2023-03-17T04:45:46.031Z,92.07
2023-03-17T04:48:13.058Z,91.63
2023-03-17T04:50:40.033Z,90.77
2023-03-17T04:53:07.131Z,91.34
2023-03-17T04:55:34.024Z,92.88
2023-03-17T04:58:01.344Z,94.00
2023-03-17T05:00:28.449Z,94.13
2023-03-17T05:02:55.763Z,93.67
2023-03-17T05:05:22.958Z,92.71
2023-03-17T05:07:49.915Z,92.54
2023-03-17T05:10:17.039Z,90.67
2023-03-17T05:12:45.489Z,90.96
2023-03-17T05:15:12.431Z,90.36
2023-03-17T05:17:39.320Z,89.58
2023-03-17T05:20:06.911Z,89.27
2023-03-17T05:22:33.858Z,90.56
2023-03-17T05:25:00.914Z,90.46
2023-03-17T05:27:27.899Z,89.92
2023-03-17T05:29:54.816Z,89.67
2023-03-17T05:32:21.774Z,89.19
2023-03-17T05:34:49.092Z,89.72
2023-03-17T05:37:16.911Z,89.90
2023-03-17T05:39:44.138Z,89.31
2023-03-17T05:42:11.635Z,90.13
2023-03-17T05:44:38.700Z,91.37
2023-03-17T05:47:06.083Z,92.13
2023-03-17T05:49:32.971Z,92.84
2023-03-17T05:51:59.858Z,92.24
2023-03-17T05:54:26.818Z,92.35
2023-03-17T05:56:55.373Z,92.14
2023-03-17T05:59:22.790Z,91.52
2023-03-17T06:01:49.780Z,89.52
2023-03-17T06:04:16.843Z,89.77
2023-03-17T06:06:43.941Z,89.01
2023-03-17T06:09:11.040Z,88.78
2023-03-17T06:11:38.477Z,87.95
2023-03-17T06:14:05.404Z,86.73
2023-03-17T06:16:33.499Z,88.61
2023-03-17T06:19:00.578Z,87.43
2023-03-17T06:21:27.689Z,87.50
2023-03-17T06:23:54.757Z,85.37
2023-03-17T06:26:22.174Z,86.09
2023-03-17T06:28:49.057Z,85.69
2023-03-17T06:31:16.238Z,84.43
2023-03-17T06:33:44.012Z,82.75
2023-03-17T06:37:03.856Z,82.10
2023-03-17T06:39:31.321Z,81.26
2023-03-17T06:41:58.309Z,80.17
2023-03-17T06:44:25.307Z,75.90
2023-03-17T06:46:52.999Z,73.84
2023-03-17T06:49:19.970Z,71.94
2023-03-17T06:51:47.182Z,69.93
2023-03-17T06:54:14.368Z,68.99
2023-03-17T06:56:42.062Z,68.24
2023-03-17T06:59:09.102Z,67.08
2023-03-17T07:01:36.016Z,67.16
2023-03-17T07:04:02.994Z,65.83
2023-03-17T07:06:30.133Z,64.99
2023-03-17T07:08:58.252Z,65.88
2023-03-17T07:11:37.667Z,65.19
2023-03-17T07:14:07.285Z,64.20
2023-03-17T07:16:34.373Z,64.27
2023-03-17T07:19:15.159Z,64.52
2023-03-17T07:21:42.298Z,61.54
2023-03-17T07:24:10.228Z,61.21
2023-03-17T07:26:37.478Z,61.69
2023-03-17T07:29:05.953Z,63.12
2023-03-17T07:31:33.310Z,60.98
2023-03-17T07:34:00.267Z,59.85
2023-03-17T07:36:27.677Z,59.38
2023-03-17T07:38:55.708Z,58.53
2023-03-17T07:41:22.902Z,59.10
2023-03-17T07:43:49.821Z,56.47
2023-03-17T07:46:16.924Z,55.06
2023-03-17T07:48:44.287Z,54.38
2023-03-17T07:51:17.107Z,54.71
2023-03-17T07:53:45.374Z,56.11
2023-03-17T07:56:13.403Z,54.49
2023-03-17T07:58:40.611Z,53.92
2023-03-17T08:01:08.802Z,53.99
2023-03-17T08:03:38.691Z,54.06
2023-03-17T08:06:08.849Z,50.14
2023-03-17T08:08:36.244Z,51.11
2023-03-17T08:11:05.364Z,49.19
2023-03-17T08:13:32.993Z,48.57
2023-03-17T08:16:00.876Z,48.13
2023-03-17T08:18:27.899Z,46.59
2023-03-17T08:20:55.013Z,47.01
2023-03-17T08:23:22.729Z,47.44
2023-03-17T08:25:49.746Z,45.91
2023-03-17T08:28:16.742Z,46.89
2023-03-17T08:30:45.036Z,44.82
2023-03-17T08:33:12.319Z,45.24
2023-03-17T08:35:42.049Z,43.69
2023-03-17T08:38:09.910Z,45.93
2023-03-17T08:40:38.604Z,44.63
2023-03-17T08:43:05.696Z,43.20
2023-03-17T08:45:32.832Z,45.12
2023-03-17T08:48:00.348Z,44.10
2023-03-17T08:50:27.698Z,43.36
2023-03-17T08:52:55.319Z,44.38
2023-03-17T08:55:22.271Z,45.40
2023-03-17T08:57:49.786Z,41.50
2023-03-17T09:00:20.625Z,42.38
2023-03-17T09:02:49.099Z,42.97
2023-03-17T09:05:17.547Z,44.01
2023-03-17T09:07:45.026Z,42.17
2023-03-17T09:10:13.921Z,43.76
2023-03-17T09:12:40.850Z,40.69
2023-03-17T09:15:08.313Z,42.33
2023-03-17T09:17:35.250Z,40.64
2023-03-17T09:20:02.217Z,39.28
2023-03-17T09:22:29.085Z,40.69
2023-03-17T09:24:56.226Z,39.90
2023-03-17T09:27:23.215Z,37.63
2023-03-17T09:29:50.115Z,37.56
2023-03-17T09:32:17.123Z,38.91
2023-03-17T09:34:44.082Z,38.69
2023-03-17T09:37:11.101Z,37.62
2023-03-17T09:39:38.093Z,36.09
2023-03-17T09:42:20.387Z,37.23
2023-03-17T09:44:47.928Z,36.81
2023-03-17T09:47:42.289Z,38.01
2023-03-17T09:50:19.294Z,36.50
2023-03-17T09:52:51.092Z,35.40
2023-03-17T09:55:31.783Z,35.08
2023-03-17T09:58:01.106Z,37.22
2023-03-17T10:00:31.402Z,35.84
2023-03-17T10:02:59.208Z,36.57
2023-03-17T10:05:37.220Z,33.56
2023-03-17T10:08:30.736Z,34.25
2023-03-17T10:11:15.052Z,34.13
2023-03-17T10:14:02.383Z,34.11
2023-03-17T10:16:47.087Z,35.66
2023-03-17T10:19:31.807Z,33.52
2023-03-17T10:22:05.675Z,34.68
2023-03-17T10:24:34.380Z,32.77
2023-03-17T10:27:06.632Z,33.33
2023-03-17T10:29:33.688Z,33.29
2023-03-17T10:32:01.167Z,32.29
2023-03-17T10:34:31.267Z,34.92
2023-03-17T10:37:09.653Z,33.10
2023-03-17T10:39:52.623Z,33.63
2023-03-17T10:42:26.456Z,31.33
2023-03-17T10:45:02.188Z,32.60
2023-03-17T10:47:38.628Z,33.15
2023-03-17T10:50:25.164Z,31.23
2023-03-17T10:53:00.881Z,34.44
2023-03-17T10:55:44.961Z,32.15
2023-03-17T10:58:18.958Z,31.39
2023-03-17T11:01:03.819Z,31.49
2023-03-17T11:03:39.917Z,32.10
2023-03-17T11:06:19.356Z,33.71
2023-03-17T11:08:55.452Z,33.10
2023-03-17T11:11:34.960Z,32.65
2023-03-17T11:14:10.807Z,31.48
2023-03-17T11:16:40.983Z,33.70
2023-03-17T11:19:15.950Z,31.52
2023-03-17T11:22:05.278Z,29.33
2023-03-17T11:24:36.596Z,31.23
2023-03-17T11:27:19.498Z,32.81
2023-03-17T11:30:11.565Z,31.24
2023-03-17T11:32:44.130Z,32.07
2023-03-17T11:35:24.242Z,31.34
2023-03-17T11:38:09.919Z,31.43
2023-03-17T11:40:55.743Z,31.32
2023-03-17T11:43:51.477Z,29.32
2023-03-17T11:46:30.426Z,29.42
2023-03-17T11:49:10.189Z,29.55
2023-03-17T11:51:50.923Z,29.67
2023-03-17T11:54:46.053Z,30.15
2023-03-17T11:57:27.393Z,31.22
2023-03-17T12:00:01.189Z,29.99
2023-03-17T12:02:50.245Z,30.01
2023-03-17T12:05:23.329Z,31.74
2023-03-17T12:08:01.137Z,30.90
2023-03-17T12:10:36.595Z,30.89
2023-03-17T12:13:15.209Z,31.02
2023-03-17T12:16:01.298Z,31.41
2023-03-17T12:18:32.972Z,31.03
2023-03-17T12:21:12.187Z,31.81
2023-03-17T12:23:48.646Z,30.40
2023-03-17T12:26:21.885Z,31.19
2023-03-17T12:28:58.388Z,30.35
2023-03-17T12:31:44.725Z,29.15
2023-03-17T12:34:24.386Z,28.80
2023-03-17T12:36:52.493Z,29.85
2023-03-17T12:39:27.505Z,27.55
2023-03-17T12:42:11.878Z,27.65
2023-03-17T12:45:00.107Z,26.67
2023-03-17T12:47:45.603Z,27.92
2023-03-17T12:50:46.765Z,28.15
2023-03-17T12:53:16.487Z,29.06
2023-03-17T12:55:47.572Z,29.87
2023-03-17T12:58:39.837Z,29.81
2023-03-17T13:01:23.359Z,29.03
2023-03-17T13:04:05.309Z,29.01
2023-03-17T13:06:41.234Z,28.35
2023-03-17T13:09:50.963Z,29.10
2023-03-17T13:12:42.920Z,28.57
2023-03-17T13:15:33.642Z,30.36
2023-03-17T13:18:12.685Z,28.90
2023-03-17T13:21:00.633Z,27.72
2023-03-17T13:23:41.981Z,29.46
2023-03-17T13:26:12.678Z,28.38
2023-03-17T13:28:40.966Z,28.78
2023-03-17T13:31:31.979Z,28.05
2023-03-17T13:34:19.926Z,26.81
2023-03-17T13:36:56.266Z,27.41
2023-03-17T13:39:50.689Z,27.08
2023-03-17T13:42:50.938Z,28.74
2023-03-17T13:45:34.193Z,29.00
2023-03-17T13:48:35.155Z,28.26
2023-03-17T13:51:33.991Z,27.90
2023-03-17T13:54:20.193Z,28.43
2023-03-17T13:56:49.792Z,26.63
2023-03-17T13:59:41.179Z,27.82
2023-03-17T14:02:24.100Z,27.72
2023-03-17T14:04:53.738Z,25.61
2023-03-17T14:07:24.874Z,27.07
2023-03-17T14:09:57.668Z,28.04
2023-03-17T14:12:42.880Z,28.09
2023-03-17T14:15:35.306Z,27.75
2023-03-17T14:18:15.650Z,29.69
2023-03-17T14:20:57.122Z,27.37
2023-03-17T14:23:25.274Z,28.19
2023-03-17T14:25:55.034Z,28.27
2023-03-17T14:28:27.319Z,30.09
2023-03-17T14:31:02.399Z,29.75
2023-03-17T14:33:32.684Z,28.55
2023-03-17T14:36:02.384Z,29.34
2023-03-17T14:38:32.903Z,28.11
2023-03-17T14:41:21.401Z,30.44
2023-03-17T14:43:50.223Z,27.41
2023-03-17T14:46:23.219Z,29.10
2023-03-17T14:48:57.747Z,30.21
2023-03-17T14:51:27.502Z,28.91
2023-03-17T14:54:01.378Z,29.14
2023-03-17T14:56:41.734Z,28.99
2023-03-17T14:59:20.704Z,28.62
2023-03-17T15:01:48.866Z,29.32
2023-03-17T15:04:23.936Z,30.80
2023-03-17T15:06:54.096Z,28.73
2023-03-17T15:09:36.762Z,28.90
2023-03-17T15:12:12.801Z,29.34
2023-03-17T15:14:41.306Z,29.85
2023-03-17T15:17:32.633Z,30.18
2023-03-17T15:20:06.645Z,30.19
2023-03-17T15:22:36.366Z,28.96
2023-03-17T15:25:28.943Z,30.63
2023-03-17T15:27:56.343Z,29.88
2023-03-17T15:30:23.745Z,32.27
2023-03-17T15:33:01.575Z,30.66
2023-03-17T15:35:29.292Z,31.06
2023-03-17T15:37:56.745Z,31.04
2023-03-17T15:40:24.468Z,31.39
2023-03-17T15:42:51.394Z,31.27
2023-03-17T15:45:18.566Z,32.05
2023-03-17T15:47:47.580Z,31.34
2023-03-17T15:50:30.318Z,29.51
2023-03-17T15:53:00.944Z,30.81
2023-03-17T15:55:30.443Z,32.00
2023-03-17T15:57:58.672Z,31.66
2023-03-17T16:00:30.098Z,30.94
2023-03-17T16:03:02.875Z,31.76
2023-03-17T16:05:33.152Z,32.83
2023-03-17T16:08:00.162Z,33.87
2023-03-17T16:10:32.241Z,35.09
2023-03-17T16:12:59.645Z,35.81
2023-03-17T16:15:31.497Z,37.09
2023-03-17T16:18:01.515Z,37.40
2023-03-17T16:20:34.453Z,37.59
2023-03-17T16:23:08.054Z,37.99
2023-03-17T16:25:35.367Z,38.07
2023-03-17T16:28:12.505Z,38.79
2023-03-17T16:30:40.509Z,38.44
2023-03-17T16:33:22.677Z,39.86
2023-03-17T16:35:52.661Z,38.67
2023-03-17T16:38:24.918Z,40.30
2023-03-17T16:40:54.919Z,40.24
2023-03-17T16:43:28.586Z,40.72
2023-03-17T16:45:58.724Z,40.80
2023-03-17T16:48:26.300Z,40.75
2023-03-17T16:50:53.306Z,41.21
2023-03-17T16:53:20.659Z,42.04
2023-03-17T16:55:48.012Z,42.26
2023-03-17T16:58:37.132Z,42.53
2023-03-17T17:01:12.860Z,41.96
2023-03-17T17:03:41.019Z,42.82
2023-03-17T17:06:08.978Z,43.66
2023-03-17T17:08:36.051Z,42.49
2023-03-17T17:11:03.453Z,42.76
2023-03-17T17:13:30.629Z,43.13
2023-03-17T17:15:57.706Z,44.03
2023-03-17T17:18:27.451Z,42.56
2023-03-17T17:20:55.208Z,43.02
2023-03-17T17:23:26.944Z,45.02
2023-03-17T17:25:55.232Z,43.65
2023-03-17T17:28:24.146Z,43.77
2023-03-17T17:30:52.434Z,43.93
2023-03-17T17:33:21.478Z,43.43
2023-03-17T17:35:49.681Z,44.04
2023-03-17T17:38:28.719Z,43.82
2023-03-17T17:40:57.641Z,45.62
2023-03-17T17:43:25.379Z,45.06
2023-03-17T17:45:53.349Z,44.06
2023-03-17T17:48:23.706Z,45.36
2023-03-17T17:50:52.332Z,46.17
2023-03-17T17:53:19.847Z,45.83
2023-03-17T17:55:48.440Z,46.09
2023-03-17T17:58:18.302Z,45.21
2023-03-17T18:00:45.646Z,46.12
2023-03-17T18:03:12.806Z,46.51
2023-03-17T18:05:40.328Z,45.43
2023-03-17T18:08:10.426Z,47.73
2023-03-17T18:10:37.637Z,47.40
2023-03-17T18:13:05.444Z,47.30
2023-03-17T18:15:32.689Z,49.88
2023-03-17T18:17:59.752Z,49.28
2023-03-17T18:20:27.230Z,48.79
2023-03-17T18:22:54.527Z,48.13
2023-03-17T18:25:21.559Z,48.37
2023-03-17T18:27:48.767Z,49.87
2023-03-17T18:30:28.095Z,50.33
2023-03-17T18:33:01.511Z,49.67
2023-03-17T18:35:29.946Z,50.57
2023-03-17T18:37:59.226Z,51.12
2023-03-17T18:40:27.731Z,51.24
2023-03-17T18:42:55.537Z,50.98
2023-03-17T18:45:22.816Z,51.06
2023-03-17T18:47:50.778Z,49.09
2023-03-17T18:50:20.252Z,50.32
2023-03-17T18:52:48.037Z,50.66
2023-03-17T18:55:16.039Z,49.97
2023-03-17T18:57:44.729Z,49.87
2023-03-17T19:00:17.132Z,50.24
2023-03-17T19:02:45.898Z,49.32
2023-03-17T19:05:15.000Z,48.80
2023-03-17T19:07:42.492Z,49.33
2023-03-17T19:10:11.474Z,49.00
2023-03-17T19:12:38.907Z,48.97
2023-03-17T19:15:08.451Z,48.63
2023-03-17T19:17:36.562Z,48.44
2023-03-17T19:20:06.678Z,49.32
2023-03-17T19:22:35.256Z,48.00
2023-03-17T19:25:05.107Z,47.96
2023-03-17T19:27:32.537Z,47.98
2023-03-17T19:29:59.509Z,48.54
2023-03-17T19:32:27.092Z,47.10
2023-03-17T19:34:54.722Z,47.31
2023-03-17T19:37:21.910Z,47.95
2023-03-17T19:39:49.140Z,48.64
2023-03-17T19:42:16.467Z,47.89
2023-03-17T19:44:43.754Z,48.28
2023-03-17T19:47:10.717Z,48.45
2023-03-17T19:49:38.998Z,48.99
2023-03-17T19:52:06.751Z,48.85
2023-03-17T19:54:34.458Z,49.03
2023-03-17T19:57:01.403Z,49.08
2023-03-17T19:59:29.028Z,50.20
2023-03-17T20:01:56.798Z,50.58
2023-03-17T20:04:24.039Z,50.06
2023-03-17T20:06:55.688Z,50.75
2023-03-17T20:09:25.002Z,50.16
2023-03-17T20:11:54.059Z,51.36
2023-03-17T20:14:21.339Z,51.98
2023-03-17T20:16:49.176Z,50.41
2023-03-17T20:19:16.757Z,50.51
2023-03-17T20:21:44.069Z,52.18
2023-03-17T20:24:13.107Z,51.69
2023-03-17T20:26:41.193Z,51.75
2023-03-17T20:29:08.854Z,51.84
2023-03-17T20:31:37.415Z,52.50
2023-03-17T20:34:35.621Z,53.68
2023-03-17T20:37:03.065Z,52.63
2023-03-17T20:39:31.120Z,53.30
2023-03-17T20:41:58.117Z,54.29
2023-03-17T20:44:25.546Z,53.25
2023-03-17T20:46:55.386Z,54.53
2023-03-17T20:49:23.756Z,53.58
2023-03-17T20:51:52.859Z,54.15
2023-03-17T20:54:20.422Z,54.12
2023-03-17T20:56:49.171Z,53.78
2023-03-17T20:59:16.563Z,54.83
2023-03-17T21:01:43.727Z,54.08
2023-03-17T21:04:12.566Z,54.71
2023-03-17T21:06:39.911Z,54.43
2023-03-17T21:09:06.849Z,54.26
2023-03-17T21:11:34.408Z,55.73
2023-03-17T21:14:03.621Z,54.89
2023-03-17T21:16:30.958Z,55.47
2023-03-17T21:18:57.960Z,55.03
2023-03-17T21:21:25.617Z,56.46
2023-03-17T21:23:52.892Z,56.88
2023-03-17T21:26:20.197Z,55.56
2023-03-17T21:28:49.147Z,56.97
2023-03-17T21:31:17.471Z,57.20
2023-03-17T21:33:45.102Z,58.41
2023-03-17T21:36:12.122Z,57.84
2023-03-17T21:38:39.308Z,58.74
2023-03-17T21:41:21.544Z,58.24
2023-03-17T21:43:48.665Z,59.86
2023-03-17T21:46:16.753Z,61.27
2023-03-17T21:48:44.302Z,59.73
2023-03-17T21:51:11.678Z,60.37
2023-03-17T21:53:38.811Z,59.46
2023-03-17T21:56:06.565Z,59.84
2023-03-17T21:58:33.577Z,60.73
2023-03-17T22:01:01.674Z,59.66
2023-03-17T22:03:30.219Z,59.96
2023-03-17T22:05:57.170Z,60.05
2023-03-17T22:08:24.483Z,60.98
2023-03-17T22:10:51.873Z,59.92
2023-03-17T22:13:18.903Z,61.50
2023-03-17T22:15:45.844Z,59.39
2023-03-17T22:18:12.812Z,61.42
2023-03-17T22:20:39.918Z,62.28
2023-03-17T22:23:07.128Z,63.18
2023-03-17T22:25:34.118Z,63.86
2023-03-17T22:28:01.055Z,65.25
2023-03-17T22:30:28.439Z,64.68
2023-03-17T22:32:55.987Z,66.75
2023-03-17T22:35:25.195Z,66.54
2023-03-17T22:37:52.203Z,67.01
2023-03-17T22:40:19.401Z,67.90
2023-03-17T22:42:47.059Z,68.51
2023-03-17T22:45:14.056Z,68.18
2023-03-17T22:47:41.267Z,68.09
2023-03-17T22:50:09.020Z,67.49
2023-03-17T22:52:35.967Z,68.53
2023-03-17T22:55:02.946Z,68.92
2023-03-17T22:57:30.017Z,69.24
2023-03-17T22:59:58.542Z,68.90
2023-03-17T23:02:26.474Z,68.43
2023-03-17T23:04:53.740Z,68.29
2023-03-17T23:07:21.186Z,69.36
2023-03-17T23:09:48.337Z,69.57
2023-03-17T23:12:15.355Z,68.76
2023-03-17T23:14:42.561Z,68.89
2023-03-17T23:17:09.746Z,69.58
2023-03-17T23:19:36.758Z,69.31
2023-03-17T23:22:03.746Z,68.97
2023-03-17T23:24:30.719Z,69.05
2023-03-17T23:26:57.713Z,69.63
2023-03-17T23:29:24.688Z,69.21
2023-03-17T23:31:51.601Z,69.45
2023-03-17T23:34:18.916Z,69.32
2023-03-17T23:36:46.368Z,69.87
2023-03-17T23:39:13.447Z,68.01
2023-03-17T23:41:40.474Z,69.14
2023-03-17T23:44:07.751Z,68.85
2023-03-17T23:46:34.874Z,70.58
2023-03-17T23:49:01.874Z,70.90
2023-03-17T23:51:29.398Z,69.48
2023-03-17T23:53:56.381Z,70.00
2023-03-17T23:56:23.474Z,70.85
2023-03-17T23:58:50.544Z,71.25
